Time;durP1;ratioP1;P1;durP2;ratioP2;P2;SDS_P1;SDS_P2;PMS_P1;PMS_P2;Temp;Humidity;BMP_temperature;BMP_pressure;BME280_temperature;BME280_humidity;BME280_pressure;Samples;Min_cycle;Max_cycle;Signal;HPM_P1;HPM_P2
2022/03/26 00:00:47;;;;;;;90.45;45.40;;;5.40;84.30;;;;;;5065495;28;20036;-77
2022/03/26 00:03:13;;;;;;;91.13;45.50;;;5.40;84.40;;;;;;5064587;28;20081;-77
2022/03/26 00:05:39;;;;;;;91.35;45.80;;;5.30;84.60;;;;;;5060198;28;20033;-77
2022/03/26 00:08:06;;;;;;;96.13;47.20;;;5.30;84.70;;;;;;5068279;28;20085;-77
2022/03/26 00:10:31;;;;;;;99.38;49.10;;;5.20;84.80;;;;;;5061932;28;20032;-77
2022/03/26 00:12:57;;;;;;;120.20;53.00;;;5.20;85.30;;;;;;5058775;28;20036;-77
2022/03/26 00:15:23;;;;;;;104.70;51.30;;;5.20;85.80;;;;;;5046230;28;20653;-77
2022/03/26 00:17:49;;;;;;;124.10;55.28;;;5.30;86.10;;;;;;5079531;28;20517;-77
2022/03/26 00:20:15;;;;;;;122.57;56.40;;;5.30;86.20;;;;;;5079958;28;20033;-77
2022/03/26 00:22:40;;;;;;;121.93;57.08;;;5.40;86.10;;;;;;5047675;28;20033;-77
2022/03/26 00:25:06;;;;;;;122.30;56.55;;;5.40;86.10;;;;;;5052304;28;20383;-77
2022/03/26 00:27:32;;;;;;;123.13;59.55;;;5.40;86.10;;;;;;5069802;28;20032;-77
2022/03/26 00:29:57;;;;;;;130.45;57.22;;;5.40;86.00;;;;;;5072676;28;20023;-77
2022/03/26 00:32:23;;;;;;;116.25;55.67;;;5.40;86.00;;;;;;5044800;28;20051;-77
2022/03/26 00:34:49;;;;;;;124.18;56.17;;;5.30;86.00;;;;;;5047028;28;20487;-77
2022/03/26 00:37:16;;;;;;;122.97;57.38;;;5.30;86.00;;;;;;5048590;28;20079;-77
2022/03/26 00:39:42;;;;;;;112.05;55.05;;;5.20;86.10;;;;;;5063337;28;20546;-77
2022/03/26 00:42:08;;;;;;;127.68;58.03;;;5.20;86.00;;;;;;5070802;28;20107;-77
2022/03/26 00:44:37;;;;;;;110.07;53.10;;;5.10;85.90;;;;;;5048548;28;20515;-77
2022/03/26 00:47:03;;;;;;;113.47;54.35;;;5.10;86.00;;;;;;5050229;28;20029;-77
2022/03/26 00:49:28;;;;;;;114.57;56.38;;;5.00;86.20;;;;;;5072494;28;20027;-77
2022/03/26 00:51:54;;;;;;;112.95;55.63;;;5.00;86.30;;;;;;5057748;28;20471;-77
2022/03/26 00:54:19;;;;;;;118.40;54.08;;;5.00;86.30;;;;;;5046584;28;20036;-77
2022/03/26 00:56:46;;;;;;;123.43;56.38;;;4.80;86.20;;;;;;5065294;28;20040;-77
2022/03/26 00:59:11;;;;;;;100.10;49.10;;;4.80;86.30;;;;;;5068983;28;20028;-77
2022/03/26 01:01:37;;;;;;;109.63;50.42;;;4.60;86.00;;;;;;5069340;28;20028;-77
2022/03/26 01:04:03;;;;;;;114.82;51.75;;;4.40;86.20;;;;;;5055227;28;20463;-77
2022/03/26 01:06:29;;;;;;;111.32;50.45;;;4.30;86.60;;;;;;5073544;28;20040;-78
2022/03/26 01:08:54;;;;;;;115.43;51.85;;;4.30;86.80;;;;;;5062409;28;20055;-77
2022/03/26 01:11:20;;;;;;;113.30;49.95;;;4.30;87.10;;;;;;5075795;28;20122;-77
2022/03/26 01:13:48;;;;;;;106.00;50.33;;;4.20;87.50;;;;;;5067543;28;20033;-77
2022/03/26 01:16:14;;;;;;;107.93;49.03;;;4.20;87.60;;;;;;5041309;28;20276;-77
2022/03/26 01:18:40;;;;;;;94.43;46.10;;;4.10;87.60;;;;;;5051086;28;20029;-77
2022/03/26 01:21:05;;;;;;;90.80;43.25;;;4.00;87.60;;;;;;5031296;28;20041;-77
2022/03/26 01:23:31;;;;;;;93.45;44.65;;;3.90;87.60;;;;;;5050399;28;20039;-77
2022/03/26 01:25:58;;;;;;;100.70;46.55;;;3.80;88.00;;;;;;5039492;28;20036;-77
2022/03/26 01:28:24;;;;;;;102.22;48.90;;;3.80;88.40;;;;;;5064490;28;20052;-77
2022/03/26 01:30:49;;;;;;;112.05;48.60;;;3.80;88.60;;;;;;5044617;28;20451;-77
2022/03/26 01:33:15;;;;;;;112.03;52.13;;;3.80;88.90;;;;;;5047872;28;20491;-77
2022/03/26 01:35:40;;;;;;;122.38;52.42;;;3.80;89.10;;;;;;5043308;28;20021;-77
2022/03/26 01:38:07;;;;;;;117.07;52.83;;;3.80;89.30;;;;;;5072311;28;20024;-77
2022/03/26 01:40:34;;;;;;;120.93;52.47;;;3.80;89.30;;;;;;5071191;28;20031;-77
2022/03/26 01:42:59;;;;;;;119.38;53.63;;;3.70;89.40;;;;;;5049867;28;20044;-77
2022/03/26 01:45:27;;;;;;;117.68;49.03;;;3.60;89.50;;;;;;5048651;28;20455;-77
2022/03/26 01:47:52;;;;;;;113.80;49.47;;;3.50;89.50;;;;;;5069641;28;20051;-77
2022/03/26 01:50:18;;;;;;;126.88;51.97;;;3.50;89.80;;;;;;5064564;28;20053;-78
2022/03/26 01:52:43;;;;;;;127.82;54.97;;;3.50;90.00;;;;;;5048968;28;20115;-78
2022/03/26 01:55:09;;;;;;;134.52;54.55;;;3.60;90.20;;;;;;5052676;28;20115;-78
2022/03/26 01:57:35;;;;;;;126.18;51.33;;;3.50;90.20;;;;;;5054660;28;20553;-78
2022/03/26 02:00:02;;;;;;;135.18;55.42;;;3.50;90.20;;;;;;5056787;28;20037;-78
2022/03/26 02:02:28;;;;;;;144.07;56.80;;;3.50;90.40;;;;;;5060882;28;20122;-78
2022/03/26 02:04:54;;;;;;;143.13;55.63;;;3.60;90.30;;;;;;5052651;28;20555;-78
2022/03/26 02:07:19;;;;;;;125.38;52.92;;;3.50;90.30;;;;;;5069393;28;20032;-78
2022/03/26 02:09:45;;;;;;;122.60;52.58;;;3.30;90.00;;;;;;5050240;28;20024;-78
2022/03/26 02:12:38;;;;;;;115.38;50.85;;;3.20;89.80;;;;;;5062077;28;20021;-78
2022/03/26 02:15:06;;;;;;;120.10;51.05;;;3.10;89.90;;;;;;5055780;28;20464;-78
2022/03/26 02:17:33;;;;;;;134.73;55.50;;;3.10;89.90;;;;;;5060044;28;20394;-78
2022/03/26 02:20:00;;;;;;;135.57;58.00;;;3.10;90.20;;;;;;5057152;28;20035;-78
2022/03/26 02:22:28;;;;;;;147.57;57.83;;;3.10;90.50;;;;;;5075804;28;20383;-78
2022/03/26 02:24:54;;;;;;;158.35;63.25;;;3.30;90.70;;;;;;5048218;28;20165;-78
2022/03/26 02:27:21;;;;;;;151.00;62.33;;;3.40;90.90;;;;;;5075849;28;20043;-78
2022/03/26 02:29:47;;;;;;;151.85;61.47;;;3.40;91.00;;;;;;5057887;28;20025;-78
2022/03/26 02:32:13;;;;;;;175.75;62.70;;;3.40;91.00;;;;;;5051386;28;20624;-78
2022/03/26 02:34:38;;;;;;;165.45;64.25;;;3.40;91.10;;;;;;5050956;28;20476;-77
2022/03/26 02:37:04;;;;;;;175.10;65.60;;;3.40;91.20;;;;;;5066865;28;20040;-77
2022/03/26 02:39:30;;;;;;;170.63;64.88;;;3.30;91.10;;;;;;5078738;28;20136;-77
2022/03/26 02:41:55;;;;;;;182.82;62.60;;;3.30;91.20;;;;;;5063673;28;20031;-77
2022/03/26 02:44:21;;;;;;;170.63;63.38;;;3.20;91.30;;;;;;5047678;28;20029;-77
2022/03/26 02:46:47;;;;;;;152.73;62.45;;;3.20;91.20;;;;;;5066493;28;20032;-77
2022/03/26 02:49:13;;;;;;;156.98;62.85;;;3.20;91.30;;;;;;5064278;28;20029;-77
2022/03/26 02:51:39;;;;;;;151.32;60.30;;;3.10;91.30;;;;;;5053359;28;20035;-77
2022/03/26 02:54:06;;;;;;;147.07;58.72;;;3.10;91.40;;;;;;5057517;28;20039;-78
2022/03/26 02:56:31;;;;;;;159.73;61.20;;;3.10;91.40;;;;;;5053981;28;20400;-77
2022/03/26 02:58:57;;;;;;;157.90;62.45;;;3.00;91.40;;;;;;5055623;28;20047;-77
2022/03/26 03:01:23;;;;;;;158.98;60.28;;;3.10;91.60;;;;;;5067316;28;20028;-77
2022/03/26 03:03:49;;;;;;;150.40;57.80;;;2.90;91.40;;;;;;5055179;28;20027;-77
2022/03/26 03:06:16;;;;;;;144.77;57.42;;;2.70;91.30;;;;;;5069693;28;20036;-77
2022/03/26 03:08:41;;;;;;;156.63;60.22;;;2.70;91.30;;;;;;5066045;28;20029;-77
2022/03/26 03:11:08;;;;;;;171.90;63.58;;;2.80;91.70;;;;;;5065029;28;20414;-77
2022/03/26 03:13:34;;;;;;;175.48;66.38;;;2.90;91.90;;;;;;5043186;28;20124;-77
2022/03/26 03:16:00;;;;;;;188.48;70.28;;;2.90;91.80;;;;;;5051392;28;20028;-77
2022/03/26 03:18:25;;;;;;;190.60;69.70;;;3.10;92.20;;;;;;5068771;28;20485;-77
2022/03/26 03:20:51;;;;;;;193.07;70.82;;;3.10;92.10;;;;;;5060263;28;20461;-77
2022/03/26 03:23:17;;;;;;;187.02;69.57;;;3.10;92.10;;;;;;5055489;28;20438;-77
2022/03/26 03:25:42;;;;;;;194.13;68.88;;;3.10;92.20;;;;;;5063465;28;20483;-77
2022/03/26 03:28:08;;;;;;;195.57;68.07;;;3.10;92.20;;;;;;5068392;28;20105;-77
2022/03/26 03:30:34;;;;;;;187.18;67.97;;;3.00;92.00;;;;;;5049297;28;20124;-77
2022/03/26 03:32:59;;;;;;;174.50;63.80;;;2.90;91.90;;;;;;5071679;28;20303;-77
2022/03/26 03:35:25;;;;;;;165.68;64.13;;;2.80;92.00;;;;;;5068077;28;20020;-77
2022/03/26 03:37:51;;;;;;;176.07;65.57;;;2.70;91.90;;;;;;5074385;28;20098;-77
2022/03/26 03:40:17;;;;;;;197.27;71.50;;;2.70;92.10;;;;;;5052746;28;20430;-77
2022/03/26 03:42:43;;;;;;;205.85;69.75;;;2.70;92.00;;;;;;5074084;28;20028;-77
2022/03/26 03:45:10;;;;;;;188.88;70.55;;;2.80;92.20;;;;;;5052906;28;20128;-77
2022/03/26 03:47:37;;;;;;;192.30;71.70;;;2.80;92.10;;;;;;5069115;28;20076;-77
2022/03/26 03:50:04;;;;;;;203.10;70.85;;;2.70;92.00;;;;;;5050765;28;20124;-77
2022/03/26 03:52:30;;;;;;;200.80;71.00;;;2.70;92.10;;;;;;5050362;28;20032;-77
2022/03/26 03:54:55;;;;;;;186.20;68.28;;;2.60;92.00;;;;;;5053919;28;20073;-77
2022/03/26 03:57:21;;;;;;;170.82;66.65;;;2.60;92.10;;;;;;5079732;28;20044;-77
2022/03/26 03:59:46;;;;;;;193.02;68.50;;;2.50;92.00;;;;;;5042064;28;20115;-77
2022/03/26 04:02:12;;;;;;;189.65;71.40;;;2.60;92.00;;;;;;5078844;28;20527;-77
2022/03/26 04:04:39;;;;;;;189.70;71.22;;;2.50;91.80;;;;;;5058048;28;20590;-77
2022/03/26 04:07:05;;;;;;;186.50;69.30;;;2.50;91.80;;;;;;5063352;28;20051;-77
2022/03/26 04:09:31;;;;;;;188.75;67.20;;;2.40;91.70;;;;;;5052660;28;20506;-77
2022/03/26 04:11:57;;;;;;;184.70;66.65;;;2.40;91.70;;;;;;5047176;28;20040;-77
2022/03/26 04:14:22;;;;;;;191.15;67.85;;;2.30;91.70;;;;;;5061469;28;20510;-77
2022/03/26 04:16:47;;;;;;;214.82;74.68;;;2.30;91.90;;;;;;5051179;28;20120;-77
2022/03/26 04:19:13;;;;;;;213.68;76.28;;;2.20;92.00;;;;;;5052997;28;20021;-77
2022/03/26 04:21:39;;;;;;;240.95;83.05;;;2.30;92.30;;;;;;5060396;28;20481;-77
2022/03/26 04:24:05;;;;;;;270.10;85.45;;;2.50;92.50;;;;;;5065388;28;20028;-77
2022/03/26 04:26:30;;;;;;;298.95;90.30;;;2.60;92.60;;;;;;5068998;28;20024;-78
2022/03/26 04:28:56;;;;;;;298.75;89.18;;;2.70;92.80;;;;;;5065448;28;20025;-78
2022/03/26 04:31:21;;;;;;;287.15;87.57;;;2.70;92.70;;;;;;5045444;28;20106;-78
2022/03/26 04:33:47;;;;;;;301.45;91.22;;;2.70;92.80;;;;;;5043222;28;20025;-78
2022/03/26 04:36:12;;;;;;;299.95;90.07;;;2.70;92.90;;;;;;5066231;28;20487;-77
2022/03/26 04:38:38;;;;;;;317.45;93.80;;;2.70;93.00;;;;;;5075993;28;20024;-77
2022/03/26 04:41:05;;;;;;;300.77;91.57;;;2.70;93.10;;;;;;5049487;28;20044;-77
2022/03/26 04:43:30;;;;;;;298.00;94.15;;;2.70;93.10;;;;;;5069283;28;20039;-78
2022/03/26 04:45:56;;;;;;;312.67;93.82;;;2.70;93.20;;;;;;5067285;28;21210;-77
2022/03/26 04:48:21;;;;;;;311.02;93.03;;;2.70;93.20;;;;;;5070969;28;20123;-77
2022/03/26 04:50:47;;;;;;;297.58;91.63;;;2.70;93.30;;;;;;5037957;28;20083;-77
2022/03/26 04:53:13;;;;;;;318.85;94.25;;;2.70;93.30;;;;;;5064605;28;20468;-78
2022/03/26 04:55:39;;;;;;;303.30;93.07;;;2.70;93.30;;;;;;5073289;28;20039;-78
2022/03/26 04:58:04;;;;;;;310.15;92.97;;;2.70;93.30;;;;;;5051639;28;20107;-78
2022/03/26 05:00:30;;;;;;;317.08;96.40;;;2.70;93.30;;;;;;5046798;28;20124;-77
2022/03/26 05:02:56;;;;;;;318.33;94.45;;;2.70;93.40;;;;;;5056677;28;20082;-77
2022/03/26 05:05:21;;;;;;;335.48;95.75;;;2.60;93.30;;;;;;5063828;28;20044;-77
2022/03/26 05:07:47;;;;;;;339.27;100.68;;;2.50;93.30;;;;;;5051923;28;20028;-77
2022/03/26 05:10:23;;;;;;;332.38;98.75;;;2.60;93.40;;;;;;5069562;28;20402;-77
2022/03/26 05:12:50;;;;;;;344.98;99.13;;;2.60;93.50;;;;;;5059675;28;20032;-77
2022/03/26 05:15:17;;;;;;;337.67;99.32;;;2.60;93.60;;;;;;5051017;28;20078;-77
2022/03/26 05:17:43;;;;;;;359.25;100.68;;;2.60;93.60;;;;;;5050980;28;20024;-78
2022/03/26 05:20:11;;;;;;;331.40;99.07;;;2.60;93.60;;;;;;5052424;28;20025;-77
2022/03/26 05:22:38;;;;;;;356.75;103.53;;;2.70;93.60;;;;;;5069460;28;20059;-77
2022/03/26 05:25:03;;;;;;;350.55;101.95;;;2.70;93.60;;;;;;5042729;28;20064;-77
2022/03/26 05:27:29;;;;;;;360.63;105.38;;;2.70;93.70;;;;;;5050812;28;20044;-77
2022/03/26 05:29:55;;;;;;;350.45;104.38;;;2.80;93.70;;;;;;5065516;28;20029;-77
2022/03/26 05:32:20;;;;;;;348.35;100.85;;;2.80;93.60;;;;;;5059804;28;20063;-78
2022/03/26 05:34:46;;;;;;;362.85;108.15;;;2.80;93.60;;;;;;5051367;28;20119;-78
2022/03/26 05:37:12;;;;;;;353.80;104.15;;;2.80;93.70;;;;;;5049286;28;20048;-78
2022/03/26 05:39:38;;;;;;;367.23;104.97;;;2.80;93.60;;;;;;5060336;28;20476;-77
2022/03/26 05:42:04;;;;;;;359.27;102.20;;;2.80;93.60;;;;;;5047420;28;20669;-78
2022/03/26 05:44:30;;;;;;;351.23;102.30;;;2.80;93.70;;;;;;5038979;28;20129;-77
2022/03/26 05:46:56;;;;;;;361.67;100.68;;;2.90;93.80;;;;;;5035592;28;20560;-77
2022/03/26 05:49:22;;;;;;;341.27;99.05;;;2.90;93.70;;;;;;5049867;28;20083;-77
2022/03/26 05:51:48;;;;;;;342.02;102.80;;;3.00;93.70;;;;;;5049720;28;20021;-77
2022/03/26 05:54:14;;;;;;;342.75;101.10;;;3.00;93.70;;;;;;5053687;28;20032;-77
2022/03/26 05:56:40;;;;;;;341.52;101.70;;;3.00;93.70;;;;;;5039584;28;20074;-77
2022/03/26 05:59:09;;;;;;;339.65;100.00;;;3.10;93.70;;;;;;5047713;28;20465;-78
2022/03/26 06:01:35;;;;;;;331.67;99.35;;;3.10;93.60;;;;;;5043058;28;20029;-78
2022/03/26 06:04:01;;;;;;;308.20;101.30;;;3.20;93.60;;;;;;5044945;28;20033;-78
2022/03/26 06:06:27;;;;;;;313.95;98.93;;;3.30;93.50;;;;;;5047492;28;20039;-78
2022/03/26 06:08:52;;;;;;;293.10;97.90;;;3.30;93.40;;;;;;5049551;28;20051;-78
2022/03/26 06:11:18;;;;;;;303.63;97.22;;;3.30;93.30;;;;;;5047754;28;20388;-78
2022/03/26 06:13:44;;;;;;;301.63;98.00;;;3.40;93.30;;;;;;5046403;28;20029;-78
2022/03/26 06:16:10;;;;;;;305.80;96.85;;;3.50;93.30;;;;;;5044307;28;20312;-77
2022/03/26 06:18:35;;;;;;;292.02;94.95;;;3.60;93.10;;;;;;5043634;28;20384;-77
2022/03/26 06:21:05;;;;;;;292.05;98.15;;;3.60;93.10;;;;;;5045286;28;20044;-77
2022/03/26 06:23:34;;;;;;;274.08;97.28;;;3.80;93.10;;;;;;5049053;28;20021;-77
2022/03/26 06:25:59;;;;;;;272.23;97.78;;;3.80;92.90;;;;;;5043009;28;20078;-77
2022/03/26 06:28:25;;;;;;;268.95;95.13;;;4.00;92.90;;;;;;5049577;28;20021;-77
2022/03/26 06:30:51;;;;;;;261.90;93.97;;;4.10;92.80;;;;;;5045028;28;20044;-76
2022/03/26 06:33:18;;;;;;;263.38;95.15;;;4.30;92.60;;;;;;5036225;28;20025;-76
2022/03/26 06:35:44;;;;;;;251.55;94.93;;;4.40;92.40;;;;;;5049377;28;20075;-76
2022/03/26 06:38:10;;;;;;;235.38;91.38;;;4.60;91.90;;;;;;5040022;28;20525;-77
2022/03/26 06:40:37;;;;;;;218.18;90.75;;;4.60;91.60;;;;;;5069022;28;20021;-77
2022/03/26 06:43:03;;;;;;;223.45;90.03;;;4.70;91.40;;;;;;5046703;28;20048;-77
2022/03/26 06:45:28;;;;;;;209.27;87.20;;;4.90;91.10;;;;;;5065082;28;20052;-76
2022/03/26 06:47:54;;;;;;;188.60;84.43;;;5.00;90.90;;;;;;5069501;28;20040;-76
2022/03/26 06:50:20;;;;;;;190.20;83.50;;;5.10;90.50;;;;;;5046308;28;20112;-76
2022/03/26 06:52:45;;;;;;;187.52;81.63;;;5.20;90.20;;;;;;5052698;28;20056;-76
2022/03/26 06:55:11;;;;;;;173.35;79.43;;;5.40;90.00;;;;;;5066940;28;20444;-76
2022/03/26 06:57:37;;;;;;;169.75;77.32;;;5.40;89.60;;;;;;5051373;28;20032;-77
2022/03/26 07:00:05;;;;;;;165.02;73.10;;;5.60;89.50;;;;;;5048837;28;20178;-77
2022/03/26 07:02:30;;;;;;;164.00;74.20;;;5.70;89.00;;;;;;5066515;28;20032;-77
2022/03/26 07:04:56;;;;;;;152.43;73.18;;;5.80;88.80;;;;;;5062141;28;20021;-77
2022/03/26 07:07:21;;;;;;;153.55;73.45;;;6.00;88.60;;;;;;5059204;28;20029;-77
2022/03/26 07:09:47;;;;;;;147.43;71.75;;;6.10;88.20;;;;;;5050840;28;20043;-77
2022/03/26 07:12:12;;;;;;;148.85;68.65;;;6.20;87.80;;;;;;5055382;28;20572;-77
2022/03/26 07:14:38;;;;;;;146.55;67.57;;;6.40;87.60;;;;;;5077327;28;20043;-77
2022/03/26 07:17:04;;;;;;;140.60;65.18;;;6.50;87.30;;;;;;5051176;28;20029;-78
2022/03/26 07:19:29;;;;;;;126.57;64.18;;;6.70;87.20;;;;;;5066651;28;20542;-78
2022/03/26 07:21:55;;;;;;;126.97;63.85;;;6.80;86.40;;;;;;5066217;28;20039;-78
2022/03/26 07:24:20;;;;;;;111.32;58.85;;;7.00;86.30;;;;;;5066566;28;20032;-78
2022/03/26 07:26:46;;;;;;;123.40;62.70;;;7.10;85.90;;;;;;5052726;28;20032;-77
2022/03/26 07:29:12;;;;;;;119.60;60.90;;;7.20;85.30;;;;;;5062931;28;20725;-77
2022/03/26 07:31:37;;;;;;;109.78;57.20;;;7.40;85.30;;;;;;5068758;28;20062;-77
2022/03/26 07:34:03;;;;;;;117.85;59.55;;;7.50;84.80;;;;;;5052338;28;20391;-77
2022/03/26 07:36:29;;;;;;;114.85;56.58;;;7.60;84.50;;;;;;5068190;28;20037;-77
2022/03/26 07:38:54;;;;;;;108.75;59.20;;;7.90;84.70;;;;;;5072506;28;20391;-77
2022/03/26 07:41:21;;;;;;;110.35;56.05;;;8.00;84.50;;;;;;5048887;28;20017;-77
2022/03/26 07:43:47;;;;;;;111.00;54.50;;;8.10;84.00;;;;;;5063577;28;20376;-77
2022/03/26 07:46:14;;;;;;;108.25;56.80;;;8.10;83.90;;;;;;5050794;28;20036;-78
2022/03/26 07:48:39;;;;;;;103.13;56.05;;;8.20;83.30;;;;;;5058646;28;20029;-78
2022/03/26 07:51:05;;;;;;;99.20;52.17;;;8.40;83.50;;;;;;5061910;28;20090;-77
2022/03/26 07:53:30;;;;;;;101.10;52.25;;;8.40;82.70;;;;;;5062595;28;20036;-78
2022/03/26 07:55:56;;;;;;;100.00;51.85;;;8.70;82.20;;;;;;5047652;28;20016;-78
2022/03/26 07:58:22;;;;;;;95.53;50.65;;;8.80;82.10;;;;;;5061817;28;20075;-78
2022/03/26 08:00:49;;;;;;;88.50;48.33;;;9.10;81.50;;;;;;5060331;28;20025;-77
2022/03/26 08:03:14;;;;;;;78.20;44.03;;;9.20;80.60;;;;;;5053051;28;20060;-77
2022/03/26 08:05:40;;;;;;;74.05;42.47;;;9.50;80.10;;;;;;5052979;28;20056;-77
2022/03/26 08:08:06;;;;;;;70.13;41.38;;;9.60;79.50;;;;;;5071815;28;20025;-77
2022/03/26 08:10:32;;;;;;;80.57;43.92;;;9.80;78.80;;;;;;5051456;28;20028;-77
2022/03/26 08:12:57;;;;;;;76.55;42.30;;;10.00;78.50;;;;;;5053974;28;20028;-77
2022/03/26 08:15:23;;;;;;;76.85;41.25;;;10.10;78.00;;;;;;5069719;28;20089;-77
2022/03/26 08:17:48;;;;;;;68.90;38.10;;;10.10;77.30;;;;;;5053623;28;20021;-77
2022/03/26 08:20:14;;;;;;;74.18;38.97;;;10.20;77.60;;;;;;5071846;28;20032;-77
2022/03/26 08:22:41;;;;;;;67.80;37.28;;;10.40;76.80;;;;;;5062971;28;20514;-77
2022/03/26 08:25:09;;;;;;;70.53;39.13;;;10.60;76.60;;;;;;5052143;28;20162;-78
2022/03/26 08:27:38;;;;;;;54.72;29.00;;;10.90;76.30;;;;;;5063853;28;20027;-78
2022/03/26 08:30:07;;;;;;;47.67;28.05;;;11.10;74.70;;;;;;5061557;28;20541;-78
2022/03/26 08:32:33;;;;;;;41.92;23.60;;;11.30;74.20;;;;;;5082061;28;20031;-78
2022/03/26 08:34:58;;;;;;;42.88;25.23;;;11.50;73.40;;;;;;5056186;28;20016;-78
2022/03/26 08:37:24;;;;;;;48.05;26.20;;;11.60;72.30;;;;;;5071295;28;20492;-78
2022/03/26 08:39:49;;;;;;;45.47;25.55;;;11.80;73.40;;;;;;5054397;28;20032;-78
2022/03/26 08:42:15;;;;;;;42.38;23.50;;;11.80;72.60;;;;;;5079994;28;20036;-78
2022/03/26 08:44:41;;;;;;;39.40;22.67;;;11.70;72.70;;;;;;5068530;28;20472;-78
2022/03/26 08:47:06;;;;;;;43.00;24.27;;;11.60;72.80;;;;;;5053212;28;20115;-78
2022/03/26 08:49:33;;;;;;;43.45;23.77;;;11.80;73.20;;;;;;5050290;28;20078;-78
2022/03/26 08:51:59;;;;;;;34.22;20.45;;;12.10;71.50;;;;;;5072740;28;20024;-78
2022/03/26 08:54:25;;;;;;;37.40;21.92;;;12.10;70.90;;;;;;5087368;28;20374;-78
2022/03/26 08:56:50;;;;;;;33.97;20.00;;;12.20;71.30;;;;;;5064471;28;20029;-78
2022/03/26 08:59:16;;;;;;;38.58;18.65;;;12.10;71.30;;;;;;5058235;28;20028;-78
2022/03/26 09:01:41;;;;;;;33.08;20.05;;;12.30;71.30;;;;;;5051809;28;20384;-78
2022/03/26 09:04:11;;;;;;;33.10;18.52;;;12.50;70.90;;;;;;5058849;28;20028;-78
2022/03/26 09:06:36;;;;;;;32.17;20.23;;;12.60;71.00;;;;;;5050293;28;20447;-78
2022/03/26 09:09:04;;;;;;;44.38;18.58;;;12.90;69.90;;;;;;5053807;28;20063;-78
2022/03/26 09:11:30;;;;;;;32.40;17.10;;;13.00;68.80;;;;;;5069649;28;20020;-78
2022/03/26 09:13:56;;;;;;;24.88;15.77;;;13.00;69.70;;;;;;5068820;28;20039;-78
2022/03/26 09:16:22;;;;;;;24.30;15.40;;;13.30;69.70;;;;;;5069066;28;20036;-78
2022/03/26 09:18:47;;;;;;;24.23;14.02;;;13.60;68.70;;;;;;5053165;28;20017;-78
2022/03/26 09:21:13;;;;;;;25.27;14.57;;;13.60;68.60;;;;;;5051113;28;20055;-78
2022/03/26 09:23:38;;;;;;;19.50;12.25;;;13.50;69.00;;;;;;5047116;28;20498;-78
2022/03/26 09:26:04;;;;;;;26.27;13.95;;;13.60;69.10;;;;;;5035717;28;20032;-78
2022/03/26 09:28:29;;;;;;;26.88;14.98;;;13.70;68.70;;;;;;5083186;28;20020;-78
2022/03/26 09:30:55;;;;;;;20.98;12.23;;;13.70;69.20;;;;;;5058153;28;20029;-78
2022/03/26 09:33:21;;;;;;;19.48;12.55;;;13.70;68.60;;;;;;5054310;28;20043;-78
2022/03/26 09:35:47;;;;;;;20.95;13.07;;;13.70;69.20;;;;;;5054386;28;20509;-78
2022/03/26 09:38:12;;;;;;;24.23;13.38;;;13.70;69.00;;;;;;5052270;28;20146;-78
2022/03/26 09:40:41;;;;;;;19.23;12.02;;;13.60;68.70;;;;;;5072610;28;20024;-78
2022/03/26 09:43:08;;;;;;;17.30;10.77;;;13.60;68.60;;;;;;5063684;28;20506;-78
2022/03/26 09:45:34;;;;;;;22.92;11.25;;;13.50;68.30;;;;;;5069217;28;20034;-78
2022/03/26 09:47:59;;;;;;;17.52;10.05;;;13.60;68.60;;;;;;5048925;28;20491;-78
2022/03/26 09:50:25;;;;;;;18.45;11.05;;;13.90;67.60;;;;;;5054417;28;20036;-78
2022/03/26 09:52:51;;;;;;;16.23;10.52;;;13.90;68.10;;;;;;5052166;28;20476;-78
2022/03/26 09:55:19;;;;;;;18.00;10.45;;;14.00;67.60;;;;;;5040795;28;20437;-78
2022/03/26 09:57:47;;;;;;;21.42;11.40;;;13.90;68.10;;;;;;5073707;28;20103;-78
2022/03/26 10:00:14;;;;;;;15.45;9.50;;;14.10;68.30;;;;;;5069721;28;20486;-78
2022/03/26 10:02:39;;;;;;;17.77;11.38;;;14.00;67.70;;;;;;5061003;28;20365;-78
2022/03/26 10:05:08;;;;;;;18.88;10.60;;;14.00;68.00;;;;;;5083772;28;20038;-78
2022/03/26 10:07:33;;;;;;;17.35;11.02;;;14.00;67.80;;;;;;5059880;28;20025;-78
2022/03/26 10:10:02;;;;;;;20.45;11.93;;;13.70;68.70;;;;;;5078250;28;20348;-78
2022/03/26 10:12:28;;;;;;;19.25;12.32;;;14.00;68.60;;;;;;5072774;28;20525;-78
2022/03/26 10:14:54;;;;;;;19.10;10.98;;;14.10;68.20;;;;;;5070959;28;20024;-78
2022/03/26 10:17:24;;;;;;;16.70;10.57;;;13.60;68.80;;;;;;5070306;28;20025;-78
2022/03/26 10:19:57;;;;;;;15.85;10.55;;;13.90;68.70;;;;;;5067312;28;20432;-78
2022/03/26 10:22:23;;;;;;;18.58;10.68;;;13.60;68.60;;;;;;5046895;28;20036;-78
2022/03/26 10:24:49;;;;;;;18.83;10.63;;;13.60;68.60;;;;;;5074019;28;20035;-78
2022/03/26 10:27:15;;;;;;;15.52;9.35;;;13.60;68.80;;;;;;5054898;28;20055;-78
2022/03/26 10:29:49;;;;;;;16.13;9.45;;;13.50;69.20;;;;;;5055074;28;20562;-80
2022/03/26 10:32:43;;;;;;;15.93;10.00;;;13.60;68.90;;;;;;5084401;28;20024;-79
2022/03/26 10:35:14;;;;;;;19.83;12.18;;;13.80;68.40;;;;;;5065350;28;20033;-78
2022/03/26 10:37:55;;;;;;;22.02;11.77;;;13.80;68.50;;;;;;5071060;28;20066;-78
2022/03/26 10:40:24;;;;;;;16.30;9.70;;;14.30;68.30;;;;;;5062959;28;20032;-78
2022/03/26 10:43:11;;;;;;;12.18;6.70;;;14.60;66.90;;;;;;5057722;28;20033;-78
2022/03/26 10:45:45;;;;;;;9.52;6.38;;;14.00;66.60;;;;;;5070347;28;20069;-78
2022/03/26 10:48:11;;;;;;;9.80;5.80;;;14.20;66.90;;;;;;5068590;28;20060;-78
2022/03/26 10:50:38;;;;;;;11.32;6.38;;;14.10;66.60;;;;;;5066428;28;20043;-78
2022/03/26 10:53:10;;;;;;;9.75;5.68;;;14.40;66.60;;;;;;5073261;28;20082;-78
2022/03/26 10:55:39;;;;;;;10.68;5.93;;;14.50;65.70;;;;;;5054520;28;20028;-78
2022/03/26 10:58:05;;;;;;;10.65;5.80;;;14.60;65.20;;;;;;5072303;28;20033;-78
2022/03/26 11:00:31;;;;;;;18.65;5.68;;;14.90;65.00;;;;;;5056718;28;20507;-79
2022/03/26 11:02:57;;;;;;;11.07;5.65;;;14.60;64.80;;;;;;5051314;28;20029;-78
2022/03/26 11:05:23;;;;;;;14.45;6.10;;;14.90;64.50;;;;;;5062513;28;20031;-78
2022/03/26 11:07:50;;;;;;;9.65;5.28;;;14.60;64.80;;;;;;5067517;28;20443;-78
2022/03/26 11:10:16;;;;;;;10.15;5.43;;;14.90;65.00;;;;;;5047604;28;20052;-78
2022/03/26 11:12:45;;;;;;;12.93;6.50;;;14.80;65.40;;;;;;5046425;28;20068;-78
2022/03/26 11:15:17;;;;;;;10.02;6.20;;;14.50;65.20;;;;;;5049008;28;20175;-78
2022/03/26 11:18:17;;;;;;;12.35;7.15;;;14.60;65.70;;;;;;5048628;28;20032;-79
2022/03/26 11:21:23;;;;;;;11.00;6.13;;;14.50;66.40;;;;;;5056934;28;20016;-78
2022/03/26 11:24:16;;;;;;;8.80;5.25;;;14.30;66.30;;;;;;5045965;28;20037;-78
2022/03/26 11:26:53;;;;;;;9.55;4.78;;;14.00;66.50;;;;;;5042200;28;20028;-78
2022/03/26 11:29:37;;;;;;;8.00;4.93;;;14.10;67.30;;;;;;5059307;28;20074;-78
2022/03/26 11:32:31;;;;;;;9.18;4.82;;;14.30;66.70;;;;;;5050261;28;20018;-78
2022/03/26 11:35:02;;;;;;;10.32;4.50;;;14.10;67.50;;;;;;5066151;28;20025;-78
2022/03/26 11:37:28;;;;;;;8.38;3.75;;;13.80;69.00;;;;;;5037651;28;20119;-78
2022/03/26 11:39:57;;;;;;;7.90;4.40;;;13.80;69.00;;;;;;5051106;28;20088;-78
2022/03/26 11:42:37;;;;;;;8.05;4.82;;;13.70;69.00;;;;;;5051584;28;20357;-78
2022/03/26 11:51:24;;;;;;;8.18;4.43;;;13.90;69.00;;;;;;5068399;28;20438;-78
2022/03/26 11:53:58;;;;;;;9.95;5.45;;;14.00;68.40;;;;;;5054642;28;20051;-78
2022/03/26 11:56:26;;;;;;;9.20;4.40;;;14.10;68.40;;;;;;5062050;28;20031;-80
2022/03/26 11:59:04;;;;;;;6.70;3.75;;;14.10;68.80;;;;;;5063443;28;20162;-79
2022/03/26 12:01:38;;;;;;;7.97;3.17;;;14.10;70.40;;;;;;5040479;28;20040;-79
2022/03/26 12:04:20;;;;;;;7.38;3.72;;;14.00;71.00;;;;;;5093715;28;20032;-79
2022/03/26 12:06:50;;;;;;;9.80;4.25;;;13.40;72.60;;;;;;5045891;28;20064;-79
2022/03/26 12:09:36;;;;;;;7.73;4.27;;;13.50;72.90;;;;;;5053166;28;20074;-79
2022/03/26 12:12:05;;;;;;;7.75;4.03;;;13.60;73.30;;;;;;5050064;28;20028;-79
2022/03/26 12:14:31;;;;;;;9.18;4.60;;;13.60;73.10;;;;;;5050570;28;20549;-79
2022/03/26 12:16:57;;;;;;;8.70;4.45;;;13.60;73.10;;;;;;5056154;28;20448;-79
2022/03/26 12:19:48;;;;;;;8.00;4.25;;;14.00;71.80;;;;;;5055221;28;20081;-79
2022/03/26 12:22:20;;;;;;;10.88;5.03;;;14.00;72.40;;;;;;5061764;28;20035;-79
2022/03/26 12:24:48;;;;;;;10.00;4.90;;;14.30;71.00;;;;;;5058959;28;20447;-79
2022/03/26 12:27:14;;;;;;;8.80;4.82;;;14.50;69.90;;;;;;5041412;28;20123;-79
2022/03/26 12:29:40;;;;;;;10.10;4.32;;;14.80;68.70;;;;;;5052452;28;20036;-79
2022/03/26 12:32:06;;;;;;;9.40;3.47;;;15.00;68.30;;;;;;5064130;28;20050;-79
2022/03/26 12:34:32;;;;;;;7.32;3.80;;;15.50;68.30;;;;;;5060030;28;20028;-80